sensor_id;sensor_type;location;lat;lon;timestamp;P1;durP1;ratioP1;P2;durP2;ratioP2
37164;SDS011;23057;48.554;14.454;2023-07-31T00:01:53;3.03;;;2.20;;
37164;SDS011;23057;48.554;14.454;2023-07-31T00:04:24;2.90;;;2.20;;
37164;SDS011;23057;48.554;14.454;2023-07-31T00:06:55;2.58;;;1.77;;
37164;SDS011;23057;48.554;14.454;2023-07-31T00:09:25;3.22;;;2.03;;
37164;SDS011;23057;48.554;14.454;2023-07-31T00:11:56;4.07;;;2.10;;
37164;SDS011;23057;48.554;14.454;2023-07-31T00:14:27;4.35;;;2.13;;
37164;SDS011;23057;48.554;14.454;2023-07-31T00:16:58;4.68;;;1.85;;
37164;SDS011;23057;48.554;14.454;2023-07-31T00:19:29;3.40;;;2.08;;
37164;SDS011;23057;48.554;14.454;2023-07-31T00:21:59;3.50;;;2.15;;
37164;SDS011;23057;48.554;14.454;2023-07-31T00:24:30;3.70;;;1.77;;
37164;SDS011;23057;48.554;14.454;2023-07-31T00:27:01;3.38;;;2.22;;
37164;SDS011;23057;48.554;14.454;2023-07-31T00:29:32;3.00;;;1.73;;
37164;SDS011;23057;48.554;14.454;2023-07-31T00:32:03;3.88;;;1.92;;
37164;SDS011;23057;48.554;14.454;2023-07-31T00:34:34;2.85;;;1.90;;
37164;SDS011;23057;48.554;14.454;2023-07-31T00:37:05;5.28;;;1.85;;
37164;SDS011;23057;48.554;14.454;2023-07-31T00:39:36;4.18;;;1.70;;
37164;SDS011;23057;48.554;14.454;2023-07-31T00:42:07;3.17;;;1.70;;
37164;SDS011;23057;48.554;14.454;2023-07-31T00:44:38;4.22;;;1.80;;
37164;SDS011;23057;48.554;14.454;2023-07-31T00:47:09;3.80;;;1.63;;
37164;SDS011;23057;48.554;14.454;2023-07-31T00:49:40;2.38;;;1.60;;
37164;SDS011;23057;48.554;14.454;2023-07-31T00:52:11;4.57;;;1.70;;
37164;SDS011;23057;48.554;14.454;2023-07-31T00:54:42;3.10;;;1.40;;
37164;SDS011;23057;48.554;14.454;2023-07-31T00:57:13;3.90;;;1.70;;
37164;SDS011;23057;48.554;14.454;2023-07-31T00:59:45;4.03;;;1.83;;
37164;SDS011;23057;48.554;14.454;2023-07-31T01:02:16;8.05;;;1.70;;
37164;SDS011;23057;48.554;14.454;2023-07-31T01:04:48;3.00;;;1.73;;
37164;SDS011;23057;48.554;14.454;2023-07-31T01:07:42;2.22;;;1.40;;
37164;SDS011;23057;48.554;14.454;2023-07-31T01:10:26;3.58;;;1.65;;
37164;SDS011;23057;48.554;14.454;2023-07-31T01:13:07;3.88;;;1.52;;
37164;SDS011;23057;48.554;14.454;2023-07-31T01:15:38;4.68;;;1.55;;
37164;SDS011;23057;48.554;14.454;2023-07-31T01:18:09;2.67;;;1.58;;
37164;SDS011;23057;48.554;14.454;2023-07-31T01:20:40;2.83;;;1.42;;
37164;SDS011;23057;48.554;14.454;2023-07-31T01:26:36;2.63;;;1.40;;
37164;SDS011;23057;48.554;14.454;2023-07-31T01:29:13;2.20;;;1.42;;
37164;SDS011;23057;48.554;14.454;2023-07-31T01:32:01;2.78;;;1.33;;
37164;SDS011;23057;48.554;14.454;2023-07-31T01:34:35;3.70;;;1.48;;
37164;SDS011;23057;48.554;14.454;2023-07-31T01:37:07;3.75;;;1.55;;
37164;SDS011;23057;48.554;14.454;2023-07-31T01:39:38;2.45;;;1.50;;
37164;SDS011;23057;48.554;14.454;2023-07-31T01:42:09;3.80;;;1.70;;
37164;SDS011;23057;48.554;14.454;2023-07-31T01:44:39;3.67;;;1.60;;
37164;SDS011;23057;48.554;14.454;2023-07-31T01:47:10;3.78;;;1.48;;
37164;SDS011;23057;48.554;14.454;2023-07-31T01:49:41;2.47;;;1.55;;
37164;SDS011;23057;48.554;14.454;2023-07-31T01:52:12;3.10;;;1.58;;
37164;SDS011;23057;48.554;14.454;2023-07-31T01:54:43;3.55;;;1.52;;
37164;SDS011;23057;48.554;14.454;2023-07-31T01:57:13;2.60;;;1.40;;
37164;SDS011;23057;48.554;14.454;2023-07-31T01:59:44;3.50;;;1.42;;
37164;SDS011;23057;48.554;14.454;2023-07-31T02:02:15;3.28;;;1.50;;
37164;SDS011;23057;48.554;14.454;2023-07-31T02:04:46;3.72;;;1.88;;
37164;SDS011;23057;48.554;14.454;2023-07-31T02:07:17;3.65;;;1.48;;
37164;SDS011;23057;48.554;14.454;2023-07-31T02:09:48;3.42;;;1.80;;
37164;SDS011;23057;48.554;14.454;2023-07-31T02:12:19;2.15;;;1.40;;
37164;SDS011;23057;48.554;14.454;2023-07-31T02:14:50;5.65;;;1.52;;
37164;SDS011;23057;48.554;14.454;2023-07-31T02:17:21;3.35;;;1.98;;
37164;SDS011;23057;48.554;14.454;2023-07-31T02:19:52;3.00;;;1.50;;
37164;SDS011;23057;48.554;14.454;2023-07-31T02:22:23;5.65;;;1.70;;
37164;SDS011;23057;48.554;14.454;2023-07-31T02:24:54;2.80;;;1.42;;
37164;SDS011;23057;48.554;14.454;2023-07-31T02:27:24;4.20;;;1.55;;
37164;SDS011;23057;48.554;14.454;2023-07-31T02:29:57;3.72;;;1.73;;
37164;SDS011;23057;48.554;14.454;2023-07-31T02:32:29;6.13;;;1.95;;
37164;SDS011;23057;48.554;14.454;2023-07-31T02:35:00;4.55;;;1.80;;
37164;SDS011;23057;48.554;14.454;2023-07-31T02:37:31;3.53;;;1.80;;
37164;SDS011;23057;48.554;14.454;2023-07-31T02:40:01;4.32;;;1.85;;
37164;SDS011;23057;48.554;14.454;2023-07-31T02:42:32;3.15;;;1.70;;
37164;SDS011;23057;48.554;14.454;2023-07-31T02:45:03;2.75;;;1.50;;
37164;SDS011;23057;48.554;14.454;2023-07-31T02:47:35;2.40;;;1.60;;
37164;SDS011;23057;48.554;14.454;2023-07-31T02:50:06;3.45;;;1.60;;
37164;SDS011;23057;48.554;14.454;2023-07-31T02:52:37;4.25;;;1.63;;
37164;SDS011;23057;48.554;14.454;2023-07-31T02:55:08;2.67;;;1.80;;
37164;SDS011;23057;48.554;14.454;2023-07-31T02:57:39;2.63;;;1.60;;
37164;SDS011;23057;48.554;14.454;2023-07-31T03:00:10;4.82;;;1.40;;
37164;SDS011;23057;48.554;14.454;2023-07-31T03:02:41;3.85;;;1.55;;
37164;SDS011;23057;48.554;14.454;2023-07-31T03:05:12;2.97;;;1.80;;
37164;SDS011;23057;48.554;14.454;2023-07-31T03:07:43;5.30;;;1.85;;
37164;SDS011;23057;48.554;14.454;2023-07-31T03:10:13;3.03;;;1.58;;
37164;SDS011;23057;48.554;14.454;2023-07-31T03:12:46;5.15;;;1.85;;
37164;SDS011;23057;48.554;14.454;2023-07-31T03:15:18;2.92;;;1.70;;
37164;SDS011;23057;48.554;14.454;2023-07-31T03:17:49;2.78;;;1.65;;
37164;SDS011;23057;48.554;14.454;2023-07-31T03:20:19;3.00;;;1.80;;
37164;SDS011;23057;48.554;14.454;2023-07-31T03:22:50;3.55;;;1.90;;
37164;SDS011;23057;48.554;14.454;2023-07-31T03:25:21;4.50;;;1.88;;
37164;SDS011;23057;48.554;14.454;2023-07-31T03:27:52;4.05;;;1.70;;
37164;SDS011;23057;48.554;14.454;2023-07-31T03:30:22;6.07;;;2.05;;
37164;SDS011;23057;48.554;14.454;2023-07-31T03:32:53;6.22;;;2.20;;
37164;SDS011;23057;48.554;14.454;2023-07-31T03:35:24;3.42;;;1.88;;
37164;SDS011;23057;48.554;14.454;2023-07-31T03:37:55;2.92;;;1.90;;
37164;SDS011;23057;48.554;14.454;2023-07-31T03:40:25;8.15;;;2.05;;
37164;SDS011;23057;48.554;14.454;2023-07-31T03:42:56;4.38;;;2.15;;
37164;SDS011;23057;48.554;14.454;2023-07-31T03:45:27;3.33;;;1.65;;
37164;SDS011;23057;48.554;14.454;2023-07-31T03:47:58;7.22;;;2.50;;
37164;SDS011;23057;48.554;14.454;2023-07-31T03:50:29;2.75;;;1.95;;
37164;SDS011;23057;48.554;14.454;2023-07-31T03:53:00;3.65;;;1.83;;
37164;SDS011;23057;48.554;14.454;2023-07-31T03:55:31;4.78;;;2.00;;
37164;SDS011;23057;48.554;14.454;2023-07-31T03:58:02;7.85;;;2.22;;
37164;SDS011;23057;48.554;14.454;2023-07-31T04:00:33;7.05;;;2.10;;
37164;SDS011;23057;48.554;14.454;2023-07-31T04:03:04;5.38;;;1.77;;
37164;SDS011;23057;48.554;14.454;2023-07-31T04:05:37;2.75;;;1.65;;
37164;SDS011;23057;48.554;14.454;2023-07-31T04:08:09;4.70;;;2.25;;
37164;SDS011;23057;48.554;14.454;2023-07-31T04:10:40;3.85;;;2.20;;
37164;SDS011;23057;48.554;14.454;2023-07-31T04:13:11;3.28;;;2.13;;
37164;SDS011;23057;48.554;14.454;2023-07-31T04:15:42;2.90;;;1.80;;
37164;SDS011;23057;48.554;14.454;2023-07-31T04:18:17;4.40;;;2.17;;
37164;SDS011;23057;48.554;14.454;2023-07-31T04:20:48;7.22;;;1.90;;
37164;SDS011;23057;48.554;14.454;2023-07-31T04:23:19;3.97;;;2.15;;
37164;SDS011;23057;48.554;14.454;2023-07-31T04:25:49;7.80;;;1.90;;
37164;SDS011;23057;48.554;14.454;2023-07-31T04:28:21;6.32;;;1.85;;
37164;SDS011;23057;48.554;14.454;2023-07-31T04:30:52;6.68;;;2.00;;
37164;SDS011;23057;48.554;14.454;2023-07-31T04:33:23;2.75;;;1.73;;
37164;SDS011;23057;48.554;14.454;2023-07-31T04:35:54;3.03;;;1.80;;
37164;SDS011;23057;48.554;14.454;2023-07-31T04:38:25;4.05;;;1.50;;
37164;SDS011;23057;48.554;14.454;2023-07-31T04:40:56;4.13;;;1.50;;
37164;SDS011;23057;48.554;14.454;2023-07-31T04:43:29;3.50;;;1.85;;
37164;SDS011;23057;48.554;14.454;2023-07-31T04:46:00;4.80;;;2.03;;
37164;SDS011;23057;48.554;14.454;2023-07-31T04:48:30;6.50;;;2.08;;
37164;SDS011;23057;48.554;14.454;2023-07-31T04:51:01;2.08;;;1.55;;
37164;SDS011;23057;48.554;14.454;2023-07-31T04:53:32;4.07;;;2.05;;
37164;SDS011;23057;48.554;14.454;2023-07-31T04:56:03;5.85;;;1.65;;
37164;SDS011;23057;48.554;14.454;2023-07-31T04:58:34;2.88;;;1.55;;
37164;SDS011;23057;48.554;14.454;2023-07-31T05:01:04;5.57;;;1.70;;
37164;SDS011;23057;48.554;14.454;2023-07-31T05:03:35;5.90;;;1.58;;
37164;SDS011;23057;48.554;14.454;2023-07-31T05:06:06;4.55;;;1.75;;
37164;SDS011;23057;48.554;14.454;2023-07-31T05:08:37;5.47;;;2.20;;
37164;SDS011;23057;48.554;14.454;2023-07-31T05:11:07;6.53;;;1.77;;
37164;SDS011;23057;48.554;14.454;2023-07-31T05:13:38;5.55;;;1.95;;
37164;SDS011;23057;48.554;14.454;2023-07-31T05:16:09;5.78;;;2.08;;
37164;SDS011;23057;48.554;14.454;2023-07-31T05:18:40;4.93;;;1.70;;
37164;SDS011;23057;48.554;14.454;2023-07-31T05:21:11;2.67;;;1.63;;
37164;SDS011;23057;48.554;14.454;2023-07-31T05:23:41;5.57;;;1.73;;
37164;SDS011;23057;48.554;14.454;2023-07-31T05:26:12;3.08;;;1.65;;
37164;SDS011;23057;48.554;14.454;2023-07-31T05:28:43;4.07;;;1.85;;
37164;SDS011;23057;48.554;14.454;2023-07-31T05:31:14;3.08;;;1.60;;
37164;SDS011;23057;48.554;14.454;2023-07-31T05:33:45;5.15;;;1.80;;
37164;SDS011;23057;48.554;14.454;2023-07-31T05:36:16;3.53;;;1.83;;
37164;SDS011;23057;48.554;14.454;2023-07-31T05:38:48;4.32;;;1.83;;
37164;SDS011;23057;48.554;14.454;2023-07-31T05:41:18;3.45;;;1.58;;
37164;SDS011;23057;48.554;14.454;2023-07-31T05:43:49;3.53;;;1.20;;
37164;SDS011;23057;48.554;14.454;2023-07-31T05:46:21;4.80;;;1.55;;
37164;SDS011;23057;48.554;14.454;2023-07-31T05:48:52;3.75;;;1.38;;
37164;SDS011;23057;48.554;14.454;2023-07-31T05:51:23;2.92;;;1.20;;
37164;SDS011;23057;48.554;14.454;2023-07-31T05:53:53;5.25;;;1.55;;
37164;SDS011;23057;48.554;14.454;2023-07-31T05:56:24;4.10;;;1.73;;
37164;SDS011;23057;48.554;14.454;2023-07-31T05:58:57;6.90;;;1.60;;
37164;SDS011;23057;48.554;14.454;2023-07-31T06:01:27;5.43;;;1.52;;
37164;SDS011;23057;48.554;14.454;2023-07-31T06:03:58;4.55;;;1.23;;
37164;SDS011;23057;48.554;14.454;2023-07-31T06:06:29;4.32;;;1.35;;
37164;SDS011;23057;48.554;14.454;2023-07-31T06:09:00;3.17;;;1.30;;
37164;SDS011;23057;48.554;14.454;2023-07-31T06:11:31;5.00;;;1.50;;
37164;SDS011;23057;48.554;14.454;2023-07-31T06:14:02;3.17;;;1.33;;
37164;SDS011;23057;48.554;14.454;2023-07-31T06:16:33;2.22;;;1.10;;
37164;SDS011;23057;48.554;14.454;2023-07-31T06:19:03;4.30;;;1.40;;
37164;SDS011;23057;48.554;14.454;2023-07-31T06:21:34;5.13;;;1.30;;
37164;SDS011;23057;48.554;14.454;2023-07-31T06:24:07;3.63;;;1.55;;
37164;SDS011;23057;48.554;14.454;2023-07-31T06:26:38;3.75;;;1.48;;
37164;SDS011;23057;48.554;14.454;2023-07-31T06:29:09;4.40;;;1.80;;
37164;SDS011;23057;48.554;14.454;2023-07-31T06:31:40;5.93;;;1.60;;
37164;SDS011;23057;48.554;14.454;2023-07-31T06:34:11;2.10;;;1.20;;
37164;SDS011;23057;48.554;14.454;2023-07-31T06:36:42;3.92;;;1.55;;
37164;SDS011;23057;48.554;14.454;2023-07-31T06:39:13;5.82;;;1.20;;
37164;SDS011;23057;48.554;14.454;2023-07-31T06:41:44;4.15;;;1.45;;
37164;SDS011;23057;48.554;14.454;2023-07-31T06:44:15;4.35;;;1.48;;
37164;SDS011;23057;48.554;14.454;2023-07-31T06:46:45;4.10;;;1.45;;
37164;SDS011;23057;48.554;14.454;2023-07-31T06:49:16;5.90;;;1.67;;
37164;SDS011;23057;48.554;14.454;2023-07-31T06:51:47;3.75;;;1.00;;
37164;SDS011;23057;48.554;14.454;2023-07-31T06:54:18;2.15;;;1.10;;
37164;SDS011;23057;48.554;14.454;2023-07-31T06:56:49;6.75;;;1.75;;
37164;SDS011;23057;48.554;14.454;2023-07-31T06:59:19;6.20;;;1.65;;
37164;SDS011;23057;48.554;14.454;2023-07-31T07:01:50;1.90;;;0.88;;
37164;SDS011;23057;48.554;14.454;2023-07-31T07:04:21;3.78;;;1.15;;
37164;SDS011;23057;48.554;14.454;2023-07-31T07:06:52;4.78;;;1.13;;
37164;SDS011;23057;48.554;14.454;2023-07-31T07:09:22;2.60;;;1.17;;
37164;SDS011;23057;48.554;14.454;2023-07-31T07:11:53;5.75;;;1.42;;
37164;SDS011;23057;48.554;14.454;2023-07-31T07:14:24;3.63;;;1.10;;
37164;SDS011;23057;48.554;14.454;2023-07-31T07:16:55;3.28;;;1.13;;
37164;SDS011;23057;48.554;14.454;2023-07-31T07:19:25;4.43;;;1.02;;
37164;SDS011;23057;48.554;14.454;2023-07-31T07:21:56;6.15;;;1.00;;
37164;SDS011;23057;48.554;14.454;2023-07-31T07:24:27;2.47;;;1.10;;
37164;SDS011;23057;48.554;14.454;2023-07-31T07:26:59;2.67;;;1.00;;
37164;SDS011;23057;48.554;14.454;2023-07-31T07:29:29;4.90;;;1.10;;
37164;SDS011;23057;48.554;14.454;2023-07-31T07:32:00;6.63;;;1.27;;
37164;SDS011;23057;48.554;14.454;2023-07-31T07:34:31;4.63;;;1.20;;
37164;SDS011;23057;48.554;14.454;2023-07-31T07:37:02;5.45;;;1.27;;
37164;SDS011;23057;48.554;14.454;2023-07-31T07:39:33;2.85;;;1.20;;
37164;SDS011;23057;48.554;14.454;2023-07-31T07:42:04;4.13;;;1.40;;
37164;SDS011;23057;48.554;14.454;2023-07-31T07:44:35;3.75;;;1.48;;
37164;SDS011;23057;48.554;14.454;2023-07-31T07:47:06;5.35;;;1.13;;
37164;SDS011;23057;48.554;14.454;2023-07-31T07:49:37;5.15;;;1.15;;
37164;SDS011;23057;48.554;14.454;2023-07-31T07:52:08;5.03;;;1.02;;
37164;SDS011;23057;48.554;14.454;2023-07-31T07:54:38;2.58;;;0.93;;
37164;SDS011;23057;48.554;14.454;2023-07-31T07:57:09;8.65;;;1.17;;
37164;SDS011;23057;48.554;14.454;2023-07-31T07:59:40;1.98;;;1.00;;
37164;SDS011;23057;48.554;14.454;2023-07-31T08:02:12;3.75;;;1.38;;
37164;SDS011;23057;48.554;14.454;2023-07-31T08:04:42;3.13;;;1.20;;
37164;SDS011;23057;48.554;14.454;2023-07-31T08:07:13;3.17;;;1.23;;
37164;SDS011;23057;48.554;14.454;2023-07-31T08:09:44;4.35;;;1.05;;
37164;SDS011;23057;48.554;14.454;2023-07-31T08:12:15;4.05;;;1.17;;
37164;SDS011;23057;48.554;14.454;2023-07-31T08:14:46;2.00;;;0.93;;
37164;SDS011;23057;48.554;14.454;2023-07-31T08:17:17;2.92;;;1.02;;
37164;SDS011;23057;48.554;14.454;2023-07-31T08:19:47;5.60;;;1.30;;
37164;SDS011;23057;48.554;14.454;2023-07-31T08:22:18;6.93;;;1.48;;
37164;SDS011;23057;48.554;14.454;2023-07-31T08:24:49;6.35;;;1.65;;
37164;SDS011;23057;48.554;14.454;2023-07-31T08:27:20;5.53;;;1.65;;
37164;SDS011;23057;48.554;14.454;2023-07-31T08:29:51;4.25;;;1.10;;
37164;SDS011;23057;48.554;14.454;2023-07-31T08:32:23;5.38;;;1.38;;
37164;SDS011;23057;48.554;14.454;2023-07-31T08:34:53;4.82;;;2.05;;
37164;SDS011;23057;48.554;14.454;2023-07-31T08:37:24;2.85;;;1.40;;
37164;SDS011;23057;48.554;14.454;2023-07-31T08:39:55;4.00;;;1.40;;
37164;SDS011;23057;48.554;14.454;2023-07-31T08:42:26;5.75;;;1.42;;
37164;SDS011;23057;48.554;14.454;2023-07-31T08:44:57;5.95;;;1.55;;
37164;SDS011;23057;48.554;14.454;2023-07-31T08:47:29;2.42;;;1.00;;
37164;SDS011;23057;48.554;14.454;2023-07-31T08:50:01;4.10;;;1.20;;
37164;SDS011;23057;48.554;14.454;2023-07-31T08:52:34;5.60;;;1.17;;
37164;SDS011;23057;48.554;14.454;2023-07-31T08:55:05;3.88;;;1.10;;
37164;SDS011;23057;48.554;14.454;2023-07-31T08:57:38;2.67;;;1.00;;
37164;SDS011;23057;48.554;14.454;2023-07-31T09:00:11;2.72;;;1.13;;
37164;SDS011;23057;48.554;14.454;2023-07-31T09:02:45;5.82;;;1.08;;
37164;SDS011;23057;48.554;14.454;2023-07-31T09:08:03;5.70;;;1.40;;
37164;SDS011;23057;48.554;14.454;2023-07-31T09:10:35;5.55;;;1.17;;
37164;SDS011;23057;48.554;14.454;2023-07-31T09:13:16;6.55;;;1.50;;
37164;SDS011;23057;48.554;14.454;2023-07-31T09:15:47;2.80;;;1.10;;
37164;SDS011;23057;48.554;14.454;2023-07-31T09:18:18;4.93;;;1.17;;
37164;SDS011;23057;48.554;14.454;2023-07-31T09:21:02;2.05;;;1.17;;
37164;SDS011;23057;48.554;14.454;2023-07-31T09:23:43;3.25;;;1.13;;
37164;SDS011;23057;48.554;14.454;2023-07-31T09:26:33;3.50;;;1.17;;
37164;SDS011;23057;48.554;14.454;2023-07-31T09:29:07;6.93;;;1.27;;
37164;SDS011;23057;48.554;14.454;2023-07-31T09:31:50;3.72;;;1.15;;
37164;SDS011;23057;48.554;14.454;2023-07-31T09:34:28;3.13;;;1.00;;
37164;SDS011;23057;48.554;14.454;2023-07-31T09:37:11;3.15;;;1.20;;
37164;SDS011;23057;48.554;14.454;2023-07-31T09:39:45;3.05;;;1.42;;
37164;SDS011;23057;48.554;14.454;2023-07-31T09:42:24;3.33;;;1.17;;
37164;SDS011;23057;48.554;14.454;2023-07-31T09:45:06;2.35;;;1.10;;
37164;SDS011;23057;48.554;14.454;2023-07-31T09:47:39;3.55;;;1.40;;
37164;SDS011;23057;48.554;14.454;2023-07-31T09:50:19;8.40;;;1.38;;
37164;SDS011;23057;48.554;14.454;2023-07-31T09:52:53;1.80;;;0.95;;
37164;SDS011;23057;48.554;14.454;2023-07-31T09:55:24;4.72;;;1.20;;
37164;SDS011;23057;48.554;14.454;2023-07-31T09:57:55;2.90;;;1.17;;
37164;SDS011;23057;48.554;14.454;2023-07-31T10:00:28;3.03;;;1.20;;
37164;SDS011;23057;48.554;14.454;2023-07-31T10:03:05;4.43;;;1.20;;
37164;SDS011;23057;48.554;14.454;2023-07-31T10:05:40;3.85;;;1.42;;
37164;SDS011;23057;48.554;14.454;2023-07-31T10:08:21;5.57;;;1.40;;
37164;SDS011;23057;48.554;14.454;2023-07-31T10:10:59;4.82;;;1.20;;
37164;SDS011;23057;48.554;14.454;2023-07-31T10:13:34;4.80;;;1.65;;
37164;SDS011;23057;48.554;14.454;2023-07-31T10:16:05;4.35;;;1.15;;
37164;SDS011;23057;48.554;14.454;2023-07-31T10:18:37;4.45;;;1.33;;
37164;SDS011;23057;48.554;14.454;2023-07-31T10:21:10;3.70;;;1.15;;
37164;SDS011;23057;48.554;14.454;2023-07-31T10:23:41;4.43;;;1.30;;
37164;SDS011;23057;48.554;14.454;2023-07-31T10:26:16;3.00;;;1.25;;
37164;SDS011;23057;48.554;14.454;2023-07-31T10:28:49;4.32;;;1.52;;
37164;SDS011;23057;48.554;14.454;2023-07-31T10:31:24;4.25;;;1.30;;
37164;SDS011;23057;48.554;14.454;2023-07-31T10:33:57;2.85;;;1.23;;
37164;SDS011;23057;48.554;14.454;2023-07-31T10:36:30;6.32;;;1.48;;
37164;SDS011;23057;48.554;14.454;2023-07-31T10:39:03;4.15;;;1.30;;
37164;SDS011;23057;48.554;14.454;2023-07-31T10:41:57;3.90;;;1.30;;
37164;SDS011;23057;48.554;14.454;2023-07-31T10:44:28;2.72;;;1.00;;
37164;SDS011;23057;48.554;14.454;2023-07-31T10:47:00;2.90;;;1.33;;
37164;SDS011;23057;48.554;14.454;2023-07-31T10:49:31;3.53;;;1.48;;
37164;SDS011;23057;48.554;14.454;2023-07-31T10:52:03;4.28;;;1.20;;
37164;SDS011;23057;48.554;14.454;2023-07-31T10:54:34;3.38;;;1.30;;
37164;SDS011;23057;48.554;14.454;2023-07-31T10:57:21;3.78;;;1.40;;
37164;SDS011;23057;48.554;14.454;2023-07-31T10:59:52;4.32;;;1.13;;
37164;SDS011;23057;48.554;14.454;2023-07-31T11:03:05;2.47;;;1.40;;
37164;SDS011;23057;48.554;14.454;2023-07-31T11:05:48;2.47;;;1.40;;
37164;SDS011;23057;48.554;14.454;2023-07-31T11:11:05;3.13;;;1.30;;
37164;SDS011;23057;48.554;14.454;2023-07-31T11:16:13;4.90;;;1.60;;
37164;SDS011;23057;48.554;14.454;2023-07-31T11:18:44;2.83;;;1.35;;
37164;SDS011;23057;48.554;14.454;2023-07-31T11:21:19;4.55;;;1.52;;
37164;SDS011;23057;48.554;14.454;2023-07-31T11:23:56;2.58;;;1.15;;
37164;SDS011;23057;48.554;14.454;2023-07-31T11:26:28;2.83;;;1.10;;
37164;SDS011;23057;48.554;14.454;2023-07-31T11:29:00;3.22;;;1.50;;
37164;SDS011;23057;48.554;14.454;2023-07-31T11:31:31;3.15;;;1.20;;
37164;SDS011;23057;48.554;14.454;2023-07-31T11:34:09;2.42;;;1.23;;
37164;SDS011;23057;48.554;14.454;2023-07-31T11:36:40;3.40;;;1.73;;
37164;SDS011;23057;48.554;14.454;2023-07-31T11:39:10;3.20;;;1.40;;
37164;SDS011;23057;48.554;14.454;2023-07-31T11:41:41;2.10;;;1.10;;
37164;SDS011;23057;48.554;14.454;2023-07-31T11:44:12;3.92;;;1.60;;
37164;SDS011;23057;48.554;14.454;2023-07-31T11:46:43;4.55;;;1.40;;
37164;SDS011;23057;48.554;14.454;2023-07-31T11:49:14;3.92;;;1.50;;
37164;SDS011;23057;48.554;14.454;2023-07-31T11:51:46;5.18;;;1.40;;
37164;SDS011;23057;48.554;14.454;2023-07-31T11:54:17;2.50;;;1.13;;
37164;SDS011;23057;48.554;14.454;2023-07-31T11:56:48;3.13;;;1.60;;
37164;SDS011;23057;48.554;14.454;2023-07-31T11:59:20;4.28;;;1.90;;
37164;SDS011;23057;48.554;14.454;2023-07-31T12:01:51;3.10;;;1.42;;
37164;SDS011;23057;48.554;14.454;2023-07-31T12:04:23;3.13;;;1.33;;
37164;SDS011;23057;48.554;14.454;2023-07-31T12:06:55;2.60;;;1.48;;
37164;SDS011;23057;48.554;14.454;2023-07-31T12:09:26;3.05;;;1.20;;
37164;SDS011;23057;48.554;14.454;2023-07-31T12:11:57;2.33;;;1.20;;
37164;SDS011;23057;48.554;14.454;2023-07-31T12:14:29;4.75;;;1.95;;
37164;SDS011;23057;48.554;14.454;2023-07-31T12:17:03;6.53;;;1.60;;
37164;SDS011;23057;48.554;14.454;2023-07-31T12:19:37;6.28;;;1.60;;
37164;SDS011;23057;48.554;14.454;2023-07-31T12:22:14;2.92;;;1.20;;
37164;SDS011;23057;48.554;14.454;2023-07-31T12:24:46;3.53;;;1.05;;
37164;SDS011;23057;48.554;14.454;2023-07-31T12:27:17;4.28;;;1.63;;
37164;SDS011;23057;48.554;14.454;2023-07-31T12:29:48;3.63;;;1.42;;
37164;SDS011;23057;48.554;14.454;2023-07-31T12:32:20;6.97;;;1.70;;
37164;SDS011;23057;48.554;14.454;2023-07-31T12:34:54;3.45;;;1.42;;
37164;SDS011;23057;48.554;14.454;2023-07-31T12:37:24;2.30;;;1.42;;
37164;SDS011;23057;48.554;14.454;2023-07-31T12:39:55;2.47;;;1.10;;
37164;SDS011;23057;48.554;14.454;2023-07-31T12:42:30;2.90;;;1.42;;
37164;SDS011;23057;48.554;14.454;2023-07-31T12:45:01;3.05;;;1.55;;
37164;SDS011;23057;48.554;14.454;2023-07-31T12:47:33;5.28;;;1.45;;
37164;SDS011;23057;48.554;14.454;2023-07-31T12:50:04;2.63;;;1.42;;
37164;SDS011;23057;48.554;14.454;2023-07-31T12:52:37;4.43;;;1.52;;
37164;SDS011;23057;48.554;14.454;2023-07-31T12:55:08;2.83;;;1.30;;
37164;SDS011;23057;48.554;14.454;2023-07-31T12:57:40;2.70;;;1.27;;
37164;SDS011;23057;48.554;14.454;2023-07-31T13:00:14;4.82;;;1.60;;
37164;SDS011;23057;48.554;14.454;2023-07-31T13:02:46;3.20;;;1.40;;
37164;SDS011;23057;48.554;14.454;2023-07-31T13:05:17;4.05;;;1.33;;
37164;SDS011;23057;48.554;14.454;2023-07-31T13:07:49;4.43;;;1.35;;
37164;SDS011;23057;48.554;14.454;2023-07-31T13:10:20;1.98;;;1.20;;
37164;SDS011;23057;48.554;14.454;2023-07-31T13:12:53;3.95;;;1.50;;
37164;SDS011;23057;48.554;14.454;2023-07-31T13:15:25;2.50;;;1.35;;
37164;SDS011;23057;48.554;14.454;2023-07-31T13:17:56;4.93;;;1.77;;
37164;SDS011;23057;48.554;14.454;2023-07-31T13:20:26;2.95;;;1.30;;
37164;SDS011;23057;48.554;14.454;2023-07-31T13:22:57;8.10;;;1.90;;
37164;SDS011;23057;48.554;14.454;2023-07-31T13:25:28;1.63;;;1.00;;
37164;SDS011;23057;48.554;14.454;2023-07-31T13:27:59;2.28;;;1.40;;
37164;SDS011;23057;48.554;14.454;2023-07-31T13:30:30;3.78;;;1.40;;
37164;SDS011;23057;48.554;14.454;2023-07-31T13:33:00;3.65;;;1.55;;
37164;SDS011;23057;48.554;14.454;2023-07-31T13:35:32;3.70;;;1.27;;
37164;SDS011;23057;48.554;14.454;2023-07-31T13:38:03;4.20;;;1.80;;
37164;SDS011;23057;48.554;14.454;2023-07-31T13:40:34;4.78;;;1.63;;
37164;SDS011;23057;48.554;14.454;2023-07-31T13:43:04;3.28;;;1.40;;
37164;SDS011;23057;48.554;14.454;2023-07-31T13:45:35;3.03;;;1.40;;
37164;SDS011;23057;48.554;14.454;2023-07-31T13:48:06;3.70;;;1.25;;
37164;SDS011;23057;48.554;14.454;2023-07-31T13:50:37;4.10;;;1.63;;
37164;SDS011;23057;48.554;14.454;2023-07-31T13:53:08;3.85;;;1.60;;
37164;SDS011;23057;48.554;14.454;2023-07-31T13:55:38;3.85;;;1.77;;
37164;SDS011;23057;48.554;14.454;2023-07-31T13:58:09;4.45;;;1.85;;
37164;SDS011;23057;48.554;14.454;2023-07-31T14:00:40;4.03;;;1.80;;
37164;SDS011;23057;48.554;14.454;2023-07-31T14:03:11;4.55;;;2.20;;
37164;SDS011;23057;48.554;14.454;2023-07-31T14:05:42;3.40;;;1.52;;
37164;SDS011;23057;48.554;14.454;2023-07-31T14:08:12;5.70;;;1.73;;
37164;SDS011;23057;48.554;14.454;2023-07-31T14:10:43;2.97;;;1.73;;
37164;SDS011;23057;48.554;14.454;2023-07-31T14:13:14;3.78;;;1.50;;
37164;SDS011;23057;48.554;14.454;2023-07-31T14:15:45;2.97;;;1.30;;
37164;SDS011;23057;48.554;14.454;2023-07-31T14:18:16;4.90;;;1.20;;
37164;SDS011;23057;48.554;14.454;2023-07-31T14:20:48;4.30;;;1.73;;
37164;SDS011;23057;48.554;14.454;2023-07-31T14:23:18;2.65;;;1.50;;
37164;SDS011;23057;48.554;14.454;2023-07-31T14:25:50;2.45;;;1.13;;
37164;SDS011;23057;48.554;14.454;2023-07-31T14:28:20;4.68;;;1.40;;
37164;SDS011;23057;48.554;14.454;2023-07-31T14:30:51;3.72;;;1.67;;
37164;SDS011;23057;48.554;14.454;2023-07-31T14:33:22;5.70;;;1.95;;
37164;SDS011;23057;48.554;14.454;2023-07-31T14:35:53;3.30;;;1.75;;
37164;SDS011;23057;48.554;14.454;2023-07-31T14:38:24;3.58;;;1.80;;
37164;SDS011;23057;48.554;14.454;2023-07-31T14:40:55;3.88;;;1.65;;
37164;SDS011;23057;48.554;14.454;2023-07-31T14:43:26;4.18;;;1.35;;
37164;SDS011;23057;48.554;14.454;2023-07-31T14:45:57;3.65;;;1.30;;
37164;SDS011;23057;48.554;14.454;2023-07-31T14:48:29;3.75;;;1.65;;
37164;SDS011;23057;48.554;14.454;2023-07-31T14:51:00;3.40;;;1.70;;
37164;SDS011;23057;48.554;14.454;2023-07-31T14:53:31;3.15;;;1.70;;
37164;SDS011;23057;48.554;14.454;2023-07-31T14:56:02;2.17;;;1.35;;
37164;SDS011;23057;48.554;14.454;2023-07-31T14:58:32;3.50;;;1.60;;
37164;SDS011;23057;48.554;14.454;2023-07-31T15:01:03;2.97;;;1.33;;
37164;SDS011;23057;48.554;14.454;2023-07-31T15:03:34;3.60;;;1.70;;
37164;SDS011;23057;48.554;14.454;2023-07-31T15:06:05;3.28;;;1.73;;
37164;SDS011;23057;48.554;14.454;2023-07-31T15:08:37;8.70;;;1.60;;
37164;SDS011;23057;48.554;14.454;2023-07-31T15:11:09;3.90;;;1.48;;
37164;SDS011;23057;48.554;14.454;2023-07-31T15:13:40;4.78;;;1.10;;